Terminal Aerodrome Forecast
Issued by NWS Shreveport, LA

Home | Current Version | Previous Version | Text Only | Print | Product List | Glossary On
Versions: 1 2 3 4 5 6 7 8 9 10 11 12 13 14 15 16 17 18 19 20 21 22 23
000
FTUS44 KSHV 191700
TAFELD
TAF
KELD 191740Z 1918/2018 VRB04KT P6SM OVC011
     FM191900 08005KT P6SM BKN025
     FM192000 09007KT P6SM SCT045
     FM200000 VRB03KT P6SM SKC
      TEMPO 2010/2012 3SM BR=

USA.gov is the U.S. government's official web portal to all federal, state and local government web resources and services.